Weather at North Island Naval Air Station-Halsey Field

Public forecast

Using degrees Fahrenheit for public forecast. Weather courtesy of forecast.io.

Current aviation weather report (METAR) for North Island Naval Air Station-Halsey Field

2024/07/22 22:52 (retrieved 33 minutes ago)

KNZY 222252Z 26008KT 10SM SCT013 SCT050 23/19 A2983 RMK AO2 SLP101 T02280194 PNO

Aviation forecast (TAF) for North Island Naval Air Station-Halsey Field

Forecast is more than 12 hours old.

2024/07/21 19:15 Ammendment (retrieved 1 day ago)

TAF AMD KNZY 2119/2215 25009KT 9999 BKN009 QNH2979INS TEMPO 2120/2200 SCT012 FM220800 VRB06KT 9999 BKN008 QNH2979INS TX24/2122Z TN16/2212Z AMD 1906 FS30197